Time;durP1;ratioP1;P1;durP2;ratioP2;P2;SDS_P1;SDS_P2;PMS_P1;PMS_P2;Temp;Humidity;BMP_temperature;BMP_pressure;BME280_temperature;BME280_humidity;BME280_pressure;Samples;Min_cycle;Max_cycle;Signal;HPM_P1;HPM_P2
2021/03/30 00:00:27;;;;;;;20.95;15.02;;;9.80;99.90;;;9.38;84.14;102206.25;5022771;28;20037;-48
2021/03/30 00:02:53;;;;;;;23.88;15.98;;;9.80;99.90;;;9.37;84.05;102209.78;5023794;28;20087;-47
2021/03/30 00:05:19;;;;;;;18.10;15.40;;;9.90;99.90;;;9.47;83.77;102203.91;5027914;28;20531;-50
2021/03/30 00:07:45;;;;;;;21.83;15.10;;;10.00;99.90;;;9.55;83.13;102206.88;5018868;28;20496;-47
2021/03/30 00:10:15;;;;;;;22.05;15.15;;;10.10;99.90;;;9.64;82.49;102208.06;5019373;28;20033;-45
2021/03/30 00:12:42;;;;;;;20.70;15.25;;;10.10;99.90;;;9.66;82.34;102198.41;5022818;28;20034;-48
2021/03/30 00:15:11;;;;;;;29.55;15.15;;;10.10;99.90;;;9.59;82.55;102195.34;5028162;28;20044;-47
2021/03/30 00:17:37;;;;;;;24.73;15.38;;;10.20;99.90;;;9.48;82.95;102192.56;4996083;28;20118;-47
2021/03/30 00:20:14;;;;;;;24.23;15.07;;;10.00;99.90;;;9.44;83.49;102196.31;5026591;28;20637;-46
2021/03/30 00:22:41;;;;;;;22.58;14.73;;;10.00;99.90;;;9.48;82.74;102195.16;5025815;28;20396;-49
2021/03/30 00:25:09;;;;;;;20.05;14.00;;;10.00;99.90;;;9.51;83.54;102197.59;5024926;28;20508;-47
2021/03/30 00:27:37;;;;;;;22.30;15.77;;;10.00;99.90;;;9.48;83.00;102202.97;5010869;28;20038;-48
2021/03/30 00:30:06;;;;;;;19.92;15.65;;;10.00;99.90;;;9.37;83.04;102192.41;5021040;28;20025;-46
2021/03/30 00:32:32;;;;;;;29.92;17.13;;;9.90;99.90;;;9.23;83.33;102187.22;5027423;28;20519;-46
2021/03/30 00:34:58;;;;;;;23.95;16.88;;;9.90;99.90;;;8.99;84.33;102184.34;5023246;28;20137;-49
2021/03/30 00:37:23;;;;;;;24.45;17.42;;;9.70;99.90;;;8.79;85.00;102187.31;5026688;28;20114;-50
2021/03/30 00:39:49;;;;;;;24.70;18.30;;;9.50;99.90;;;8.67;85.42;102175.03;5025097;28;20496;-50
2021/03/30 00:42:24;;;;;;;26.13;19.42;;;9.40;99.90;;;8.53;85.97;102183.63;5027304;28;20049;-52
2021/03/30 00:44:52;;;;;;;26.30;17.77;;;9.20;99.90;;;8.52;86.09;102182.81;5026635;28;20112;-47
2021/03/30 00:47:20;;;;;;;24.80;17.67;;;9.10;99.90;;;8.55;86.31;102184.38;5023486;28;20046;-47
2021/03/30 00:49:50;;;;;;;23.42;16.33;;;9.20;99.90;;;8.69;86.13;102184.41;5027372;28;20051;-48
2021/03/30 00:52:18;;;;;;;24.42;14.93;;;9.20;99.90;;;8.86;85.04;102179.06;5010267;28;20075;-47
2021/03/30 00:54:44;;;;;;;17.27;12.82;;;9.30;99.90;;;9.24;83.85;102181.09;5013666;28;20034;-47
2021/03/30 00:57:11;;;;;;;20.58;12.90;;;9.60;99.90;;;9.37;83.07;102186.38;5022426;28;20033;-49
2021/03/30 00:59:37;;;;;;;27.00;13.10;;;9.80;99.90;;;9.29;82.96;102186.84;5030510;28;20046;-49
2021/03/30 01:02:03;;;;;;;19.73;14.60;;;9.80;99.90;;;9.13;83.32;102180.91;5031085;28;20041;-49
2021/03/30 01:04:29;;;;;;;21.50;16.10;;;9.70;99.90;;;8.84;84.39;102180.09;5031556;28;20029;-47
2021/03/30 01:06:56;;;;;;;22.90;15.90;;;9.50;99.90;;;8.68;84.90;102177.53;5027404;28;20107;-52
2021/03/30 01:09:44;;;;;;;23.08;16.17;;;9.40;99.90;;;8.58;85.40;102186.81;5028983;28;20029;-53
2021/03/30 01:12:46;;;;;;;22.85;16.23;;;9.30;99.90;;;8.47;85.59;102179.66;5014279;28;20044;-49
2021/03/30 01:15:57;;;;;;;22.90;17.02;;;9.10;99.90;;;8.48;86.03;102177.91;5031300;28;20080;-50
2021/03/30 01:18:35;;;;;;;27.27;16.90;;;9.10;99.90;;;8.48;85.48;102173.53;5023964;28;20064;-47
2021/03/30 01:21:30;;;;;;;20.42;16.08;;;9.10;99.90;;;8.47;85.77;102171.03;5014934;28;20037;-54
2021/03/30 01:23:59;;;;;;;22.50;16.73;;;9.10;99.90;;;8.48;85.67;102170.09;5013487;28;20184;-49
2021/03/30 01:26:32;;;;;;;23.52;14.45;;;9.10;99.90;;;8.81;84.88;102170.69;5030936;28;20124;-54
2021/03/30 01:29:09;;;;;;;22.77;14.98;;;9.20;99.90;;;8.87;84.25;102170.34;5025053;28;20037;-48
2021/03/30 01:31:36;;;;;;;26.65;15.23;;;9.40;99.90;;;8.69;84.60;102166.22;5030741;28;20068;-52
2021/03/30 01:34:05;;;;;;;25.05;16.90;;;9.30;99.90;;;8.48;84.81;102157.13;5013188;28;20045;-47
2021/03/30 01:36:36;;;;;;;21.02;16.85;;;9.10;99.90;;;8.36;85.72;102152.63;5009642;28;20046;-50
2021/03/30 01:39:05;;;;;;;26.27;16.88;;;9.00;99.90;;;8.24;85.71;102147.19;5009040;28;20029;-54
2021/03/30 01:41:33;;;;;;;21.27;14.43;;;8.90;99.90;;;8.43;86.07;102144.41;5030388;28;20029;-51
2021/03/30 01:44:00;;;;;;;19.45;12.95;;;8.90;99.90;;;8.78;84.32;102144.91;5011347;28;20045;-48
2021/03/30 01:46:31;;;;;;;18.67;14.73;;;9.20;99.90;;;8.59;84.83;102144.31;5029367;28;20522;-52
2021/03/30 01:48:58;;;;;;;24.45;16.15;;;9.20;99.90;;;8.54;85.26;102152.38;5010758;28;20037;-47
2021/03/30 01:51:24;;;;;;;30.08;18.17;;;9.10;99.90;;;8.44;85.58;102153.88;5027874;28;20041;-51
2021/03/30 01:53:51;;;;;;;24.92;17.67;;;9.10;99.90;;;8.29;85.86;102154.72;5012298;28;20072;-48
2021/03/30 01:56:19;;;;;;;23.70;17.15;;;9.00;99.90;;;8.31;86.31;102145.91;5030218;28;20104;-50
2021/03/30 01:58:46;;;;;;;20.02;15.57;;;8.90;99.90;;;8.30;86.26;102151.19;5011023;28;20163;-50
2021/03/30 02:01:15;;;;;;;23.63;14.02;;;8.90;99.90;;;8.50;85.74;102144.88;5010972;28;20045;-49
2021/03/30 02:03:43;;;;;;;19.73;14.13;;;9.00;99.90;;;8.51;85.25;102142.16;5020626;28;20069;-45
2021/03/30 02:06:10;;;;;;;21.42;11.93;;;9.00;99.90;;;8.66;84.75;102135.22;5012813;28;20115;-52
2021/03/30 02:08:38;;;;;;;15.52;12.10;;;9.10;99.90;;;8.71;84.28;102141.00;5001572;28;20119;-49
2021/03/30 02:11:05;;;;;;;14.45;12.02;;;9.20;99.90;;;8.78;84.11;102138.88;5012989;28;20056;-48
2021/03/30 02:13:39;;;;;;;16.55;10.93;;;9.30;99.90;;;8.78;83.91;102138.88;5000861;28;20041;-47
2021/03/30 02:16:19;;;;;;;19.08;12.90;;;9.30;99.90;;;8.77;84.16;102135.44;5010815;28;20037;-47
2021/03/30 02:19:08;;;;;;;19.00;12.85;;;9.30;99.90;;;8.72;84.11;102134.88;5000957;28;20465;-50
2021/03/30 02:21:51;;;;;;;18.65;11.50;;;9.30;99.90;;;8.61;84.49;102132.06;5010995;28;20045;-51
2021/03/30 02:24:19;;;;;;;20.13;12.55;;;9.20;99.90;;;8.57;84.20;102133.16;4995139;28;20087;-48
2021/03/30 02:26:48;;;;;;;15.88;10.30;;;9.20;99.90;;;8.64;84.19;102132.72;5029370;28;20044;-50
2021/03/30 02:29:23;;;;;;;16.77;10.95;;;9.20;99.90;;;8.77;83.38;102140.63;5011342;28;20041;-50
2021/03/30 02:31:52;;;;;;;16.95;12.23;;;9.30;99.90;;;8.56;84.09;102139.28;5013530;28;20046;-50
2021/03/30 02:34:23;;;;;;;20.85;13.25;;;9.20;99.90;;;8.28;84.32;102127.91;5011293;28;20038;-50
2021/03/30 02:36:53;;;;;;;18.40;13.18;;;9.00;99.90;;;8.14;85.34;102127.88;5015884;28;20045;-52
2021/03/30 02:39:20;;;;;;;22.23;13.45;;;8.80;99.90;;;8.10;85.59;102117.75;5010818;28;20076;-50
2021/03/30 02:41:49;;;;;;;18.95;13.60;;;8.70;99.90;;;7.98;85.92;102119.31;5028729;28;20519;-53
2021/03/30 02:44:19;;;;;;;20.27;14.15;;;8.60;99.90;;;7.93;85.67;102129.13;5004134;28;20596;-50
2021/03/30 02:46:47;;;;;;;21.02;15.60;;;8.50;99.90;;;7.97;85.92;102122.81;5029589;28;20077;-53
2021/03/30 02:49:18;;;;;;;20.88;15.52;;;8.50;99.90;;;8.02;85.99;102120.81;5011591;28;20299;-45
2021/03/30 02:51:46;;;;;;;22.45;14.73;;;8.60;99.90;;;8.04;85.54;102116.34;5028214;28;20052;-49
2021/03/30 02:54:16;;;;;;;23.90;16.27;;;8.60;99.90;;;8.13;85.48;102118.41;5028820;28;20121;-47
2021/03/30 02:56:43;;;;;;;31.73;15.77;;;8.60;99.90;;;8.21;85.40;102123.16;5028898;28;20515;-48
2021/03/30 02:59:10;;;;;;;20.20;15.85;;;8.70;99.90;;;8.20;85.48;102113.69;5011728;28;20064;-51
2021/03/30 03:01:37;;;;;;;22.88;16.02;;;8.70;99.90;;;8.16;85.37;102117.41;4995172;28;20091;-50
2021/03/30 03:04:05;;;;;;;24.65;16.65;;;8.70;99.90;;;8.17;85.62;102112.13;5018000;28;20504;-49
2021/03/30 03:06:31;;;;;;;21.88;12.73;;;8.70;99.90;;;8.22;85.40;102112.69;5194863;23;20112;-52
2021/03/30 03:08:59;;;;;;;16.88;10.63;;;8.70;99.90;;;8.34;85.14;102108.56;5009978;28;20111;-53
2021/03/30 03:11:26;;;;;;;13.02;10.45;;;8.80;99.90;;;8.47;84.39;102111.28;4992292;28;20036;-53
2021/03/30 03:13:54;;;;;;;14.30;9.75;;;9.00;99.90;;;8.59;83.90;102100.97;5009903;28;20366;-51
2021/03/30 03:16:21;;;;;;;13.73;9.73;;;9.10;99.90;;;8.75;83.63;102108.69;4991419;28;20503;-53
2021/03/30 03:18:49;;;;;;;15.82;9.90;;;9.20;99.90;;;8.70;83.52;102113.31;4992053;28;20149;-50
2021/03/30 03:21:17;;;;;;;17.75;10.48;;;9.20;99.90;;;8.63;83.96;102110.25;4992238;28;20030;-50
2021/03/30 03:23:43;;;;;;;16.05;9.10;;;9.20;99.90;;;8.83;83.06;102114.28;4992013;28;20025;-47
2021/03/30 03:26:13;;;;;;;11.98;8.48;;;9.30;99.90;;;9.04;82.26;102108.66;4992015;28;20065;-51
2021/03/30 03:28:44;;;;;;;10.35;8.20;;;9.40;99.90;;;9.09;81.69;102112.66;5009554;28;20084;-51
2021/03/30 03:31:15;;;;;;;21.90;7.63;;;9.50;99.90;;;9.14;81.07;102120.16;5009458;28;20069;-47
2021/03/30 03:33:42;;;;;;;10.35;7.93;;;9.60;99.90;;;9.07;81.09;102113.69;5009535;28;20033;-52
2021/03/30 03:36:11;;;;;;;17.67;11.68;;;9.60;99.90;;;8.89;81.28;102116.50;5009520;28;20030;-45
2021/03/30 03:38:43;;;;;;;18.23;11.98;;;9.50;99.90;;;8.54;82.53;102115.16;5009306;28;20490;-52
2021/03/30 03:41:16;;;;;;;16.92;13.02;;;9.30;99.90;;;8.31;83.72;102126.91;5009232;28;20068;-53
2021/03/30 03:43:44;;;;;;;21.35;13.98;;;9.00;99.90;;;8.22;83.75;102124.84;5009221;28;20083;-51
2021/03/30 03:46:15;;;;;;;17.30;14.48;;;8.90;99.90;;;8.14;84.31;102130.47;5009201;28;20046;-52
2021/03/30 03:48:41;;;;;;;19.45;13.90;;;8.80;99.90;;;8.03;84.87;102125.06;5009208;28;20034;-49
2021/03/30 03:51:08;;;;;;;22.70;14.75;;;8.70;99.90;;;7.91;84.83;102133.56;5009095;28;20126;-48
2021/03/30 03:53:36;;;;;;;22.40;14.10;;;8.50;99.90;;;7.75;85.43;102130.97;4991808;28;20037;-55
2021/03/30 03:56:03;;;;;;;19.42;14.45;;;8.40;99.90;;;7.63;85.62;102127.31;4991255;28;20481;-53
2021/03/30 03:58:38;;;;;;;18.48;13.68;;;8.30;99.90;;;7.62;85.73;102120.44;4991719;28;20129;-46
2021/03/30 04:01:09;;;;;;;22.63;15.32;;;8.20;99.90;;;7.59;85.85;102123.19;4992106;28;20065;-45
2021/03/30 04:03:51;;;;;;;21.45;14.52;;;8.20;99.90;;;7.57;86.29;102129.41;4991825;28;20108;-47
2021/03/30 04:06:22;;;;;;;18.92;14.40;;;8.20;99.90;;;7.60;86.08;102135.25;4991283;28;20341;-50
2021/03/30 04:08:57;;;;;;;17.95;14.30;;;8.20;99.90;;;7.55;86.17;102129.50;5009006;28;20033;-51
2021/03/30 04:11:23;;;;;;;26.48;15.23;;;8.10;99.90;;;7.56;86.39;102125.16;5008927;28;20033;-47
2021/03/30 04:13:51;;;;;;;22.25;14.85;;;8.10;99.90;;;7.52;86.31;102129.69;5008749;28;20034;-50
2021/03/30 04:16:17;;;;;;;15.70;12.02;;;8.10;99.90;;;7.71;85.85;102129.47;5008858;28;20033;-50
2021/03/30 04:18:44;;;;;;;12.95;10.13;;;8.20;99.90;;;7.99;84.61;102128.78;5008956;28;20057;-50
2021/03/30 04:21:24;;;;;;;12.50;9.85;;;8.40;99.90;;;8.07;83.85;102133.50;5008810;28;20041;-48
2021/03/30 04:23:51;;;;;;;12.48;7.68;;;8.50;99.90;;;8.25;83.13;102135.88;4992207;28;20529;-55
2021/03/30 04:26:19;;;;;;;13.23;7.63;;;8.70;99.90;;;8.51;81.79;102130.94;5008761;28;20049;-46
2021/03/30 04:28:45;;;;;;;11.00;6.20;;;8.90;99.90;;;8.67;81.53;102131.69;5008245;28;20064;-48
2021/03/30 04:31:10;;;;;;;12.80;6.00;;;9.10;99.90;;;8.84;80.60;102130.69;5008243;28;20073;-47
2021/03/30 04:33:36;;;;;;;12.48;6.70;;;9.20;99.90;;;8.86;79.89;102132.28;5008412;28;20029;-51
2021/03/30 04:36:03;;;;;;;10.48;5.88;;;9.30;99.90;;;8.80;80.20;102132.66;5008595;28;20045;-52
2021/03/30 04:38:29;;;;;;;18.55;8.18;;;9.30;99.90;;;8.86;80.10;102126.25;5008564;28;20085;-52
2021/03/30 04:40:55;;;;;;;11.13;6.28;;;9.40;99.90;;;8.82;80.29;102129.97;5008600;28;20454;-49
2021/03/30 04:43:24;;;;;;;13.00;5.72;;;9.40;99.90;;;8.92;79.44;102129.31;5008430;28;20034;-53
2021/03/30 04:45:51;;;;;;;9.38;6.15;;;9.40;99.90;;;8.99;79.36;102135.78;5008255;28;20041;-50
2021/03/30 04:48:17;;;;;;;10.77;6.38;;;9.50;99.90;;;9.02;79.24;102141.72;5008569;28;20132;-54
2021/03/30 04:50:44;;;;;;;8.70;5.63;;;9.50;99.90;;;9.15;78.27;102135.69;5008266;28;20517;-51
2021/03/30 04:53:11;;;;;;;11.32;4.68;;;9.70;99.90;;;9.24;77.47;102139.47;5008331;28;20029;-51
2021/03/30 04:55:38;;;;;;;17.77;6.22;;;9.70;99.90;;;9.20;77.93;102140.59;5007936;28;20401;-53
2021/03/30 04:58:04;;;;;;;9.55;6.50;;;9.70;99.90;;;9.08;78.54;102146.56;5008239;28;20443;-49
2021/03/30 05:00:30;;;;;;;11.15;6.53;;;9.70;99.90;;;9.11;78.12;102147.19;5008328;28;20034;-52
2021/03/30 05:02:56;;;;;;;10.30;5.97;;;9.70;99.90;;;9.10;78.63;102147.28;5008140;28;20412;-47
2021/03/30 05:05:23;;;;;;;13.10;6.35;;;9.60;99.90;;;9.15;78.10;102145.25;5008109;28;20040;-51
2021/03/30 05:07:49;;;;;;;8.52;5.65;;;9.70;99.90;;;9.17;78.25;102144.22;5007775;28;20409;-49
2021/03/30 05:10:15;;;;;;;7.70;5.60;;;9.70;99.90;;;9.26;77.42;102142.81;5008198;28;20034;-55
2021/03/30 05:12:41;;;;;;;10.90;5.68;;;9.80;99.90;;;9.32;77.06;102150.25;5007844;28;20116;-55
2021/03/30 05:15:08;;;;;;;8.40;6.15;;;9.80;99.90;;;9.32;76.82;102148.47;5007953;28;20108;-48
2021/03/30 05:17:35;;;;;;;12.00;5.55;;;9.90;99.90;;;9.37;76.78;102145.59;5008059;28;20575;-51
2021/03/30 05:20:05;;;;;;;11.05;5.45;;;9.90;99.90;;;9.41;76.52;102147.06;5007893;28;20484;-51
2021/03/30 05:22:31;;;;;;;12.00;6.30;;;10.00;99.90;;;9.56;76.20;102156.50;5007681;28;20037;-50
2021/03/30 05:24:59;;;;;;;7.93;4.55;;;10.00;99.90;;;10.60;72.72;102139.28;5007512;28;20034;-49
2021/03/30 05:27:25;;;;;;;6.32;4.72;;;10.90;99.90;;;11.84;69.19;102141.81;4989955;28;20060;-49
2021/03/30 05:29:51;;;;;;;12.65;5.75;;;12.50;99.90;;;12.46;66.22;102154.63;5007683;28;20485;-48
2021/03/30 05:32:18;;;;;;;5.75;4.70;;;13.70;99.90;;;12.88;64.83;102145.25;5007731;28;20038;-50
2021/03/30 05:34:49;;;;;;;14.48;6.40;;;14.60;99.10;;;13.29;64.00;102150.72;5007721;28;20026;-53
2021/03/30 05:37:15;;;;;;;8.55;5.43;;;15.10;97.10;;;12.59;64.91;102152.75;5007921;28;20138;-45
2021/03/30 05:39:42;;;;;;;7.45;5.28;;;15.00;95.40;;;13.60;63.61;102151.75;5008622;28;20050;-47
2021/03/30 05:42:09;;;;;;;11.05;5.10;;;15.40;94.50;;;13.90;63.16;102152.84;5011029;28;20029;-51
2021/03/30 05:44:35;;;;;;;9.57;4.70;;;15.90;92.80;;;14.71;60.05;102149.53;5011418;28;20105;-48
2021/03/30 05:49:29;;;;;;;7.88;4.35;;;17.20;83.10;;;14.70;59.15;102158.38;4993530;28;20057;-52
2021/03/30 05:51:57;;;;;;;10.52;4.50;;;17.30;78.70;;;14.24;60.68;102150.88;4993304;28;20048;-53
2021/03/30 05:54:25;;;;;;;8.95;4.88;;;17.30;78.50;;;14.07;59.76;102161.94;4993459;28;20382;-51
2021/03/30 05:56:52;;;;;;;12.57;4.10;;;17.30;77.20;;;13.73;61.54;102159.44;5011014;28;20521;-50
2021/03/30 05:59:20;;;;;;;7.15;3.92;;;16.80;78.20;;;13.82;60.73;102160.47;4993479;28;20488;-53
2021/03/30 06:01:49;;;;;;;9.43;4.05;;;16.90;77.30;;;13.95;60.73;102161.16;5011069;28;20064;-56
2021/03/30 06:04:16;;;;;;;14.65;4.70;;;17.00;76.40;;;13.97;59.67;102177.59;4993430;28;20474;-52
2021/03/30 06:06:42;;;;;;;6.45;4.03;;;17.10;74.20;;;13.74;59.86;102163.72;4992935;28;20084;-49
2021/03/30 06:09:08;;;;;;;10.73;5.63;;;17.00;74.90;;;13.64;60.31;102159.38;5010800;28;20105;-46
2021/03/30 06:11:35;;;;;;;8.27;4.72;;;16.70;76.10;;;14.07;59.16;102170.63;5010041;28;20459;-56
2021/03/30 06:14:01;;;;;;;6.72;3.97;;;17.30;73.40;;;14.08;58.24;102163.59;5010401;28;20485;-53
2021/03/30 06:16:36;;;;;;;10.10;4.38;;;17.50;71.80;;;14.14;58.60;102158.69;5010058;28;20048;-47
2021/03/30 06:19:15;;;;;;;7.78;3.90;;;17.40;71.90;;;13.93;57.70;102168.31;5010544;28;20125;-56
2021/03/30 06:21:57;;;;;;;6.70;4.38;;;17.40;70.30;;;14.25;57.15;102176.97;5009671;28;20401;-52
2021/03/30 06:24:23;;;;;;;6.65;4.15;;;17.60;70.30;;;14.71;56.25;102162.66;5010494;28;20030;-54
2021/03/30 06:26:50;;;;;;;7.88;3.88;;;18.30;67.40;;;15.07;55.52;102173.59;5009989;28;20053;-50
2021/03/30 06:29:25;;;;;;;8.00;3.95;;;18.80;66.50;;;15.09;53.47;102183.00;5009042;28;20045;-53
2021/03/30 06:31:53;;;;;;;7.30;4.07;;;18.70;63.50;;;15.14;54.29;102175.53;5009299;28;20046;-55
2021/03/30 06:34:27;;;;;;;7.93;4.05;;;18.20;65.60;;;14.52;55.04;102173.88;5009720;28;20700;-52
2021/03/30 06:36:53;;;;;;;8.05;3.78;;;16.90;68.90;;;14.10;57.04;102177.41;5010317;28;20422;-49
2021/03/30 06:39:31;;;;;;;7.50;4.50;;;15.70;74.40;;;13.44;58.67;102176.66;5009911;28;20034;-53
2021/03/30 06:44:34;;;;;;;5.20;3.78;;;13.90;84.40;;;12.79;60.43;102178.19;4991933;28;20054;-54
2021/03/30 06:47:14;;;;;;;12.50;5.00;;;13.60;88.30;;;12.81;60.73;102176.28;5010320;28;20092;-52
2021/03/30 06:50:02;;;;;;;10.23;4.38;;;13.40;91.20;;;12.89;60.59;102173.09;4993001;28;20404;-50
2021/03/30 06:52:29;;;;;;;8.13;4.90;;;13.40;92.80;;;12.88;61.22;102177.50;5010099;28;20210;-49
2021/03/30 06:55:02;;;;;;;9.50;3.90;;;13.50;94.10;;;12.95;61.09;102181.31;5009953;28;20029;-51
2021/03/30 06:57:49;;;;;;;6.10;3.80;;;13.50;94.80;;;12.88;60.71;102187.94;5009621;28;20030;-50
2021/03/30 07:00:27;;;;;;;10.02;3.47;;;13.50;95.10;;;12.86;60.99;102181.16;4991721;28;20467;-51
2021/03/30 07:02:57;;;;;;;8.27;3.72;;;13.50;95.70;;;12.97;61.04;102181.19;4998073;28;20117;-52
2021/03/30 07:05:45;;;;;;;8.00;3.80;;;13.50;95.70;;;13.22;59.96;102182.78;4997066;28;20093;-54
2021/03/30 07:08:16;;;;;;;6.68;3.85;;;13.60;95.80;;;13.48;59.28;102184.16;4994180;28;20436;-52
2021/03/30 07:10:51;;;;;;;6.03;3.88;;;13.90;95.40;;;13.37;59.55;102178.94;5010036;28;20034;-54
2021/03/30 07:13:20;;;;;;;5.50;4.38;;;14.00;94.70;;;13.66;58.72;102184.47;5008843;28;20566;-57
2021/03/30 07:15:47;;;;;;;6.22;3.78;;;14.40;94.00;;;13.75;59.09;102183.72;5009596;28;20049;-53
2021/03/30 07:18:35;;;;;;;10.32;4.10;;;14.40;93.80;;;13.86;57.94;102172.38;5008979;28;20038;-47
2021/03/30 07:21:04;;;;;;;6.60;3.95;;;14.40;93.40;;;14.03;58.28;102181.50;4993183;28;20030;-50
2021/03/30 07:23:33;;;;;;;15.18;3.53;;;14.50;93.40;;;14.21;57.64;102179.97;4991601;28;20041;-48
2021/03/30 07:26:21;;;;;;;9.30;3.15;;;14.60;93.20;;;14.08;56.10;102185.41;5009552;28;20429;-49
2021/03/30 07:29:16;;;;;;;9.13;3.85;;;14.70;91.90;;;14.17;56.59;102179.41;5008435;28;20091;-50
2021/03/30 07:32:05;;;;;;;6.28;3.40;;;14.70;92.50;;;14.11;56.98;102179.91;5008608;28;20129;-47
2021/03/30 07:34:58;;;;;;;7.82;3.55;;;14.70;92.20;;;14.28;56.13;102179.34;4993031;28;20509;-51
2021/03/30 07:37:58;;;;;;;7.63;3.40;;;14.80;91.50;;;14.41;55.50;102189.69;5009174;28;20177;-53
2021/03/30 07:40:24;;;;;;;3.97;2.90;;;14.80;91.10;;;14.34;56.13;102179.78;4989730;28;20125;-50
2021/03/30 07:42:52;;;;;;;7.63;3.30;;;14.80;90.60;;;14.60;56.14;102168.00;5005996;28;20152;-46
2021/03/30 07:45:23;;;;;;;6.30;3.10;;;15.00;91.00;;;14.80;54.58;102177.63;5008650;28;20463;-50
2021/03/30 07:47:51;;;;;;;5.50;3.45;;;15.20;89.60;;;14.89;55.06;102171.59;4991443;28;20449;-45
2021/03/30 07:50:24;;;;;;;8.48;2.80;;;15.30;89.40;;;15.18;53.95;102171.69;4990669;28;20048;-44
2021/03/30 07:52:52;;;;;;;10.07;3.63;;;15.50;88.80;;;15.53;53.75;102168.63;5013223;23;20140;-45
2021/03/30 07:55:20;;;;;;;8.10;3.10;;;15.70;88.70;;;15.77;53.45;102167.41;5008324;28;20041;-50
2021/03/30 07:58:11;;;;;;;8.27;3.38;;;16.00;87.50;;;15.96;51.18;102161.34;4994190;28;20037;-47
2021/03/30 08:00:41;;;;;;;6.80;3.10;;;16.30;83.80;;;16.13;52.34;102164.09;5008809;28;20096;-47
2021/03/30 08:03:28;;;;;;;11.23;3.30;;;16.50;84.00;;;16.32;49.73;102165.06;5008090;28;20192;-50
2021/03/30 08:06:48;;;;;;;8.60;2.88;;;16.70;80.00;;;16.38;49.40;102162.69;5008189;28;20084;-52
2021/03/30 08:09:19;;;;;;;6.00;2.80;;;16.90;78.40;;;16.59;51.10;102159.84;4995028;28;20050;-52
2021/03/30 08:11:54;;;;;;;5.25;2.63;;;17.00;79.20;;;16.89;48.99;102167.56;4990465;28;20036;-52
2021/03/30 08:14:23;;;;;;;5.57;3.00;;;17.20;79.10;;;17.15;49.73;102172.16;5009344;28;20056;-54
2021/03/30 08:16:55;;;;;;;5.15;2.33;;;17.40;78.10;;;17.20;47.99;102168.09;5009135;28;20117;-49
2021/03/30 08:19:25;;;;;;;4.85;2.20;;;17.50;76.30;;;17.16;47.98;102171.16;5009513;28;20038;-48
2021/03/30 08:22:04;;;;;;;7.80;2.72;;;17.60;73.60;;;17.37;46.69;102171.75;5008031;28;20057;-48
2021/03/30 08:24:45;;;;;;;4.30;2.80;;;17.70;74.70;;;17.52;46.54;102172.88;5008780;28;20049;-51
2021/03/30 08:27:35;;;;;;;3.47;2.22;;;17.80;72.40;;;17.76;45.32;102171.53;5007663;28;20038;-55
2021/03/30 08:30:04;;;;;;;4.57;2.75;;;18.00;71.10;;;17.98;46.48;102171.06;5008800;28;20111;-53
2021/03/30 08:32:33;;;;;;;6.00;2.58;;;18.20;71.60;;;17.99;46.28;102171.88;5008470;28;20382;-51
2021/03/30 08:35:11;;;;;;;7.50;2.92;;;18.30;70.90;;;18.32;44.70;102167.72;5007659;28;20033;-51
2021/03/30 08:37:41;;;;;;;8.00;2.50;;;18.60;69.40;;;18.70;44.58;102155.94;5008379;28;20054;-49
2021/03/30 08:40:35;;;;;;;7.35;2.40;;;18.90;69.00;;;18.67;42.64;102162.34;4998072;28;20124;-52
2021/03/30 08:43:13;;;;;;;5.90;2.05;;;19.00;66.50;;;18.74;42.53;102155.47;5000681;28;20148;-49
2021/03/30 08:46:06;;;;;;;4.13;2.28;;;19.00;67.80;;;18.96;42.45;102156.72;5007274;28;20117;-46
2021/03/30 08:48:49;;;;;;;4.38;2.10;;;19.20;66.20;;;18.99;43.69;102155.56;5004455;28;20140;-53
2021/03/30 08:51:17;;;;;;;11.48;2.67;;;19.30;66.50;;;19.31;42.90;102155.69;4990545;28;20042;-50
2021/03/30 08:53:46;;;;;;;8.20;2.45;;;19.50;65.40;;;19.47;42.82;102149.59;5008352;28;20144;-48
2021/03/30 08:56:13;;;;;;;8.40;2.55;;;19.80;64.20;;;19.73;41.96;102160.09;5006780;28;20036;-52
2021/03/30 08:58:49;;;;;;;7.85;2.80;;;20.00;63.60;;;19.78;41.23;102153.34;5006967;28;20041;-49
2021/03/30 09:01:16;;;;;;;4.47;2.60;;;20.10;62.60;;;19.68;41.51;102157.94;5007944;28;20061;-51
2021/03/30 09:03:44;;;;;;;2.75;1.90;;;20.20;61.90;;;19.69;40.50;102164.06;5008146;28;20042;-51
2021/03/30 09:06:33;;;;;;;4.68;1.63;;;20.20;60.10;;;20.05;36.85;102154.81;5008440;28;20053;-51
2021/03/30 09:08:59;;;;;;;7.00;2.00;;;20.30;58.30;;;20.20;39.42;102158.47;4990502;28;20041;-46
2021/03/30 09:11:28;;;;;;;5.07;2.08;;;20.50;59.30;;;20.40;38.05;102158.13;5006824;28;20038;-49
2021/03/30 09:14:08;;;;;;;8.82;2.08;;;20.60;57.90;;;20.50;37.53;102148.19;5008049;28;20168;-49
2021/03/30 09:16:36;;;;;;;6.93;1.98;;;20.80;58.20;;;20.79;38.51;102152.91;5008514;28;20133;-48
2021/03/30 09:19:32;;;;;;;5.00;2.45;;;21.00;58.10;;;20.94;36.72;102148.53;5011809;28;20034;-52
2021/03/30 09:22:03;;;;;;;10.80;1.77;;;21.20;56.90;;;21.07;38.39;102145.34;4993189;28;20489;-52
2021/03/30 09:27:38;;;;;;;8.82;2.30;;;21.30;57.40;;;21.03;35.55;102139.56;4996936;28;20049;-50
2021/03/30 09:30:10;;;;;;;6.70;2.05;;;21.40;56.00;;;21.31;37.07;102137.28;5010480;28;20041;-52
2021/03/30 09:32:39;;;;;;;6.20;2.45;;;21.50;56.40;;;21.47;37.02;102139.81;5011137;28;20040;-53
2021/03/30 09:35:27;;;;;;;10.48;3.00;;;21.70;55.90;;;21.51;35.87;102138.47;5011017;28;20061;-56
2021/03/30 09:38:03;;;;;;;9.98;2.60;;;21.80;54.10;;;21.38;36.83;102135.56;5010549;28;20611;-52
2021/03/30 09:40:42;;;;;;;6.65;1.90;;;21.80;55.10;;;21.51;35.77;102133.19;4993552;28;20453;-55
2021/03/30 09:43:11;;;;;;;3.80;1.98;;;21.80;55.40;;;21.75;36.80;102134.81;5011457;28;20053;-56
2021/03/30 09:45:40;;;;;;;10.35;2.60;;;22.00;55.40;;;22.06;36.52;102132.09;4993141;28;20038;-55
2021/03/30 09:48:10;;;;;;;5.85;1.92;;;22.20;55.50;;;22.29;35.98;102121.41;5010563;28;20026;-56
2021/03/30 09:50:50;;;;;;;3.50;1.73;;;22.50;54.90;;;22.37;35.58;102124.00;5010721;28;20040;-55
2021/03/30 09:53:16;;;;;;;4.55;2.28;;;22.60;54.50;;;22.54;36.24;102116.69;5007861;28;20441;-56
2021/03/30 09:55:47;;;;;;;11.90;1.80;;;22.80;54.70;;;22.61;36.19;102111.47;5009516;28;20045;-57
2021/03/30 09:58:19;;;;;;;5.90;1.77;;;22.90;54.50;;;22.65;35.15;102116.22;5011085;28;20073;-57
2021/03/30 10:00:50;;;;;;;4.85;1.83;;;23.00;53.60;;;22.43;35.61;102117.13;5010574;28;20030;-57
2021/03/30 10:03:17;;;;;;;4.13;2.22;;;22.80;54.10;;;22.37;36.96;102113.38;5010977;28;20064;-58
2021/03/30 10:05:44;;;;;;;4.88;2.30;;;22.70;54.90;;;22.56;36.64;102112.00;5009817;28;20209;-58
2021/03/30 10:08:33;;;;;;;4.95;2.40;;;22.90;54.70;;;22.88;35.89;102115.31;5010966;28;20065;-55
2021/03/30 10:10:59;;;;;;;4.30;2.25;;;23.10;54.50;;;22.99;36.38;102106.84;4992095;28;20030;-56
2021/03/30 10:13:40;;;;;;;11.65;2.38;;;23.20;54.20;;;23.15;34.81;102101.31;5010455;28;20128;-52
2021/03/30 10:16:11;;;;;;;8.70;2.45;;;23.40;52.60;;;23.29;35.02;102103.09;4989920;28;20034;-55
2021/03/30 10:18:40;;;;;;;3.85;1.95;;;23.60;53.00;;;23.44;35.04;102101.22;5004949;28;20553;-54
2021/03/30 10:21:05;;;;;;;7.45;2.30;;;23.70;53.20;;;23.46;35.04;102099.19;5006287;28;20078;-52
2021/03/30 10:23:34;;;;;;;3.83;2.08;;;23.80;52.80;;;23.53;35.22;102101.09;5010867;28;20052;-52
2021/03/30 10:26:12;;;;;;;4.25;2.20;;;23.80;53.00;;;23.64;34.03;102103.25;4992624;28;20034;-53
2021/03/30 10:28:38;;;;;;;8.68;2.40;;;24.00;51.90;;;23.42;35.41;102097.91;5010831;28;20030;-48
2021/03/30 10:31:16;;;;;;;5.97;2.10;;;23.80;52.40;;;23.19;35.65;102097.25;5010895;28;20033;-52
2021/03/30 10:33:48;;;;;;;8.80;2.45;;;23.70;52.70;;;23.13;35.78;102095.38;4992716;28;20042;-52
2021/03/30 10:36:15;;;;;;;4.43;1.50;;;23.60;53.00;;;23.33;35.50;102088.41;4993594;28;20046;-52
2021/03/30 10:39:07;;;;;;;3.03;1.80;;;23.60;53.10;;;23.34;34.45;102087.41;4992938;28;20045;-49